• Join FlightAware (Why Join?)
  • Login
  • US Flag 
10:22PM EDT


 

Airport Tracker/Info


-or-


 

Live Flight TrackerFlight Track Log ✈ SWA1719 ✈ 17-Apr-2013 ✈ KHOU - KTPA

Flight Track Log - Related Links

Times and Time Zones

All times are in EDT time to prevent confusion due to time zone crossing. See the SWA1719 flight status page for this flight to view local times or setup timezone preferences in your user account.

Time Position Orientation Groundspeed Altitude Reporting Facility
EDT Latitude Longitude Course Direction KTS MPH feet Rate Location/Type
11:59AM 29.6333 -95.2653 156° South 143 165 800  Level Houston Center
12:00PM 29.5847 -95.2400 156° South 198 228 3,900 3,000 Climbing Houston Center
12:01PM 29.5356 -95.2075 150° Southeast 211 243 7,300 2,940 Climbing Houston Center
12:02PM 29.5294 -95.1217 95° East 314 361 9,900 2,220 Climbing Houston Center
12:03PM 29.5536 -95.0256 74° East 324 373 12,100 2,460 Climbing Houston Center
12:04PM 29.5808 -94.9161 74° East 356 410 15,200 2,820 Climbing Houston Center
12:05PM 29.6078 -94.8050 74° East 363 418 18,000 2,700 Climbing Houston Center
12:06PM 29.6436 -94.6583 74° East 397 457 20,900 2,400 Climbing Houston Center
12:07PM 29.6750 -94.5314 74° East 412 474 23,000 1,380 Climbing Houston Center
12:08PM 29.7053 -94.4033 75° East 414 476 23,800 1,500 Climbing Houston Center
12:09PM 29.7125 -94.2686 86° East 429 494 26,100 1,980 Climbing Houston Center
12:10PM 29.6969 -94.1308 97° East 434 499 27,900 1,680 Climbing Houston Center
12:11PM 29.6869 -93.9861 95° East 454 522 29,600 1,500 Climbing Houston Center
12:12PM 29.6844 -93.8061 91° East 472 543 31,000 1,260 Climbing Houston Center
12:13PM 29.6831 -93.6481 91° East 493 567 32,300 1,380 Climbing Houston Center
12:14PM 29.6797 -93.4869 91° East 505 581 33,900 1,440 Climbing Houston Center
12:15PM 29.6781 -93.3267 91° East 504 580 35,300 1,200 Climbing Houston Center
12:16PM 29.6758 -93.1536 91° East 504 580 36,400 1,020 Climbing Houston Center
12:17PM 29.6731 -92.9894 91° East 511 588 37,500 1,200 Climbing Houston Center
12:18PM 29.6703 -92.8258 91° East 514 592 38,900 720 Climbing Houston Center
12:19PM 29.6675 -92.6333 91° East 506 582 39,000  Climbing Houston Center
12:20PM 29.6631 -92.4772 92° East 497 572 39,000  Level Houston Center
12:21PM 29.6333 -92.3228 102° East 496 571 39,000  Level Houston Center
12:22PM 29.6047 -92.1633 102° East 503 579 39,000  Level Houston Center
12:24PM 29.5747 -92.0094 103° East 501 577 39,000  Level Houston Center
12:25PM 29.5381 -91.8250 103° East 497 572 39,000  Level Houston Center
12:26PM 29.5069 -91.6656 103° East 496 571 39,000  Level Houston Center
12:27PM 29.4781 -91.5142 102° East 490 564 39,000  Level Houston Center
12:28PM 29.4472 -91.3619 103° East 490 564 39,000  Level Houston Center
12:29PM 29.4172 -91.2125 103° East 486 559 39,000  Level Houston Center
12:30PM 29.3864 -91.0625 103° East 486 559 39,000  Level Houston Center
12:31PM 29.3556 -90.9131 103° East 485 558 39,000  Level Houston Center
12:32PM 29.3192 -90.7339 103° East 483 556 39,000  Level Houston Center
12:33PM 29.2889 -90.5850 103° East 482 555 39,000  Level Houston Center
12:34PM 29.2583 -90.4361 103° East 483 556 39,000  Level Houston Center
12:35PM 29.2272 -90.2881 104° East 482 555 39,000  Level Houston Center
12:36PM 29.1956 -90.1394 104° East 483 556 39,000  Level Houston Center
12:37PM 29.1572 -89.9608 104° East 485 558 39,000  Level Houston Center
12:38PM 29.1261 -89.8114 103° East 485 558 39,000  Level Houston Center
12:39PM 29.0942 -89.6617 104° East 487 560 39,000  Level Houston Center
12:40PM 29.0617 -89.5125 104° East 486 559 39,000  Level Houston Center
12:41PM 29.0303 -89.3631 103° East 486 559 39,000  Level Houston Center
12:42PM 28.9911 -89.1850 104° East 485 558 39,000  Level Houston Center
12:43PM 28.9581 -89.0358 104° East 486 559 39,000  Level Houston Center
12:44PM 28.9247 -88.8878 104° East 486 559 39,000  Level Houston Center
12:45PM 28.8922 -88.7386 104° East 485 558 39,000  Level Houston Center
12:46PM 28.8539 -88.5939 107° East 481 554 39,000  Level Houston Center
12:47PM 28.8142 -88.4511 108° East 477 549 39,000  Level Houston Center
12:48PM 28.7658 -88.2764 107° East 480 552 39,000  Level Houston Center
12:49PM 28.7239 -88.1306 108° East 484 557 39,000  Level Houston Center
12:50PM 28.6831 -87.9822 107° East 489 563 39,000  Level Houston Center
12:51PM 28.6436 -87.8406 108° East 480 552 39,000  Level Houston Center
12:53PM 28.6031 -87.6983 108° East 475 547 39,000  Level Houston Center
12:54PM 28.5550 -87.5281 108° East 472 543 39,000  Level Houston Center
12:54PM 28.5472 -87.5028 109° East 491 565 39,000 -420 Level Jacksonville Center
12:55PM 28.5083 -87.3639 108° East 466 536 38,500 -780 Descending Jacksonville Center
12:56PM 28.4672 -87.2231 108° East 466 536 37,500 -780 Descending Jacksonville Center
12:57PM 28.4281 -87.0844 108° East 466 536 37,000 -300 Descending Jacksonville Center
12:58PM 28.3906 -86.9531 108° East 459 528 37,000  Level Jacksonville Center
12:59PM 28.3489 -86.8100 108° East 459 528 37,000  Level Jacksonville Center
01:00PM 28.3053 -86.6692 109° East 459 528 37,000 -900 Level Jacksonville Center
01:01PM 28.2653 -86.5311 108° East 459 528 35,300 -1,800 Descending Jacksonville Center
01:02PM 28.2233 -86.3906 109° East 465 535 33,400 -1,200 Descending Jacksonville Center
01:03PM 28.1814 -86.2478 108° East 471 542 33,000 -240 Descending Jacksonville Center
01:04PM 28.1411 -86.1078 108° East 471 542 33,000  Level Jacksonville Center
01:05PM 28.0986 -85.9697 109° East 466 536 33,000  Level Jacksonville Center
01:06PM 28.0539 -85.8228 109° East 471 542 33,000  Level Jacksonville Center
01:07PM 28.0131 -85.6875 109° East 473 544 33,000  Level Jacksonville Center
01:09PM 27.9383 -85.4286 108° East 478 550 33,000  Level Miami Center
01:10PM 27.9119 -85.2767 101° East 478 550 33,000  Level Miami Center
01:11PM 27.9183 -85.1317 87° East 472 543 33,000  Level Miami Center
01:12PM 27.9139 -84.9553 92° East 490 564 33,000  Level Miami Center
01:13PM 27.9117 -84.8072 91° East 484 557 33,000 -420 Level Miami Center
01:14PM 27.9111 -84.6642 90° East 473 544 32,200 -1,500 Descending Miami Center
01:15PM 27.9144 -84.5236 88° East 455 524 30,100 -2,040 Descending Miami Center
01:16PM 27.9136 -84.3853 90° East 449 517 28,200 -1,920 Descending Miami Center
01:17PM 27.9183 -84.2517 88° East 438 504 26,300 -1,860 Descending Miami Center
01:18PM 27.9122 -84.1269 93° East 418 481 24,500 -1,800 Descending Miami Center
01:19PM 27.9144 -84.0028 89° East 404 465 22,700 -1,800 Descending Miami Center
01:20PM 27.9142 -83.8806 90° East 394 453 21,000 -1,680 Descending Miami Center
01:21PM 27.9156 -83.7658 89° East 379 436 19,400 -1,620 Descending Miami Center
01:22PM 27.9147 -83.6531 90° East 369 425 17,800 -1,680 Descending Miami Center
01:23PM 27.9133 -83.5450 91° East 356 410 16,100 -1,740 Descending Miami Center
01:24PM 27.9122 -83.4369 91° East 346 398 14,400 -1,800 Descending Miami Center
01:25PM 27.9128 -83.3336 90° East 346 398 12,600 -1,800 Descending Miami Center
01:26PM 27.9214 -83.2333 84° East 334 384 10,900 -1,440 Descending Miami Center
01:27PM 27.9686 -83.1536 56° Northeast 301 346 9,800 -1,140 Descending Miami Center
01:28PM 28.0050 -83.0853 59° Northeast 289 333 8,700 -1,200 Descending Miami Center
01:29PM 28.0519 -83.0125 54° Northeast 282 325 7,500 -900 Descending Miami Center
01:30PM 28.0678 -82.9333 77° East 266 306 7,000 -780 Descending Miami Center
01:31PM 28.0525 -82.8503 102° East 253 291 6,000 -660 Descending Miami Center
01:31PM 28.0500 -82.8000 93° East 266 306 6,000 -660 Level Tampa TRACON
01:32PM 28.0167 -82.7000 111° Southeast 265 305 5,000 -540 Descending Tampa TRACON
01:33PM 28.0000 -82.6333 106° East 234 269 5,000 -60 Level Tampa TRACON
01:34PM 27.9667 -82.6167 156° South 233 268 4,900 -900 Descending Tampa TRACON
01:35PM 27.8833 -82.6167 180° South 230 265 3,200 -1,080 Descending Tampa TRACON
01:36PM 27.8833 -82.5667 90° East 164 189 2,600 -1,080 Descending Tampa TRACON
01:37PM 27.9000 -82.5500 41° Northeast 148 170 1,200 -1,260 Descending Tampa TRACON
01:38PM 27.9500 -82.5500 360° North 146 168 400 -840 Descending Tampa TRACON
01:40PM 27.9667 -82.5167 19° North  Level FlightAware Approximate
01:47PM 27.9755 -82.5332 19° North  Level Estimated
01:48PM 27.9755 -82.5332 19° North  Level Estimated